Time;durP1;ratioP1;P1;durP2;ratioP2;P2;SDS_P1;SDS_P2;PMS_P1;PMS_P2;Temp;Humidity;BMP_temperature;BMP_pressure;BME280_temperature;BME280_humidity;BME280_pressure;Samples;Min_cycle;Max_cycle;Signal;HPM_P1;HPM_P2
2022/08/20 00:01:35;;;;;;;4.22;1.20;;;17.80;92.60;;;;;;4991702;28;20104;-60
2022/08/20 00:04:02;;;;;;;4.53;1.95;;;17.70;92.90;;;;;;4991512;28;20047;-60
2022/08/20 00:06:32;;;;;;;5.07;1.77;;;17.70;93.10;;;;;;4991660;28;20498;-60
2022/08/20 00:08:59;;;;;;;8.77;1.73;;;17.70;93.40;;;;;;4991861;28;20050;-60
2022/08/20 00:11:26;;;;;;;3.65;1.40;;;17.70;93.70;;;;;;4991583;28;20524;-60
2022/08/20 00:13:56;;;;;;;7.03;1.90;;;17.60;93.90;;;;;;4991461;28;20056;-60
2022/08/20 00:16:25;;;;;;;4.22;1.35;;;17.60;94.30;;;;;;4991745;28;20062;-59
2022/08/20 00:18:52;;;;;;;7.78;2.10;;;17.60;94.30;;;;;;4991304;28;20046;-61
2022/08/20 00:21:19;;;;;;;5.22;1.80;;;17.60;94.50;;;;;;4991332;28;20078;-60
2022/08/20 00:23:47;;;;;;;9.93;1.90;;;17.60;94.80;;;;;;4991361;28;20088;-60
2022/08/20 00:26:14;;;;;;;11.27;1.75;;;17.50;95.30;;;;;;4991506;28;20038;-60
2022/08/20 00:28:41;;;;;;;7.90;2.03;;;17.40;95.70;;;;;;4990826;28;20129;-60
2022/08/20 00:31:09;;;;;;;11.25;2.13;;;17.40;95.80;;;;;;4991580;28;20112;-60
2022/08/20 00:33:37;;;;;;;6.65;1.48;;;17.40;96.20;;;;;;4990753;28;20089;-62
2022/08/20 00:36:08;;;;;;;12.30;1.83;;;17.40;96.40;;;;;;4974344;28;20050;-61
2022/08/20 00:38:40;;;;;;;7.25;1.50;;;17.30;96.70;;;;;;4990690;28;20085;-61
2022/08/20 00:41:09;;;;;;;5.60;1.20;;;17.30;98.10;;;;;;4990757;28;20129;-61
2022/08/20 00:43:41;;;;;;;6.32;1.42;;;17.30;97.40;;;;;;4991012;28;20261;-61
2022/08/20 00:46:17;;;;;;;6.35;1.45;;;17.20;97.70;;;;;;4990235;28;20050;-60
2022/08/20 00:48:46;;;;;;;6.93;1.85;;;17.20;98.60;;;;;;4990772;28;20137;-60
2022/08/20 00:51:23;;;;;;;9.00;1.45;;;17.10;99.00;;;;;;4974039;28;20050;-59
2022/08/20 00:53:51;;;;;;;10.07;1.83;;;17.00;99.90;;;;;;4973741;28;20077;-60
2022/08/20 00:56:17;;;;;;;8.85;2.00;;;17.00;99.80;;;;;;4973357;28;20074;-60
2022/08/20 00:58:44;;;;;;;9.80;1.75;;;16.90;99.40;;;;;;4973585;28;20070;-60
2022/08/20 01:01:11;;;;;;;9.73;1.52;;;16.90;99.90;;;;;;4972952;28;20061;-60
2022/08/20 01:03:41;;;;;;;6.75;1.70;;;16.90;99.90;;;;;;4643492;28;10000552;-60
2022/08/20 01:06:10;;;;;;;7.50;1.45;;;16.90;99.80;;;;;;4973708;28;20077;-60
2022/08/20 01:08:37;;;;;;;5.57;1.65;;;17.00;99.90;;;;;;4989325;28;20042;-60
2022/08/20 01:11:49;;;;;;;8.80;1.42;;;16.90;99.90;;;;;;4973017;28;20038;-60
2022/08/20 01:13:51;;;;;;;8.82;1.75;;;16.80;99.90;;;;;;4980907;28;20078;-60
2022/08/20 01:16:21;;;;;;;10.02;1.23;;;16.80;99.90;;;;;;4990206;28;20085;-60
2022/08/20 01:18:48;;;;;;;5.45;2.33;;;16.70;99.90;;;;;;4972899;28;20482;-60
2022/08/20 01:21:18;;;;;;;10.70;1.73;;;16.70;99.90;;;;;;4972829;28;20307;-61
2022/08/20 01:24:07;;;;;;;5.63;1.75;;;16.80;99.90;;;;;;4973578;28;20042;-61
2022/08/20 01:26:39;;;;;;;9.15;1.98;;;16.70;99.90;;;;;;4975443;28;20138;-61
2022/08/20 01:29:17;;;;;;;8.35;1.63;;;16.60;99.90;;;;;;4973200;28;20560;-61
2022/08/20 01:31:44;;;;;;;5.68;1.65;;;16.60;99.90;;;;;;4972790;28;20077;-61
2022/08/20 01:34:13;;;;;;;7.75;1.30;;;16.60;99.90;;;;;;4972930;28;20077;-61
2022/08/20 01:36:43;;;;;;;6.38;1.33;;;16.60;99.90;;;;;;4989517;28;20073;-61
2022/08/20 01:39:13;;;;;;;10.45;3.20;;;16.60;99.90;;;;;;4973077;28;20461;-61
2022/08/20 01:42:02;;;;;;;5.88;1.38;;;16.60;99.90;;;;;;4989704;28;20082;-61
2022/08/20 01:44:29;;;;;;;5.05;1.30;;;16.60;99.90;;;;;;4989225;28;20043;-61
2022/08/20 01:46:58;;;;;;;9.57;3.25;;;16.50;99.90;;;;;;4980799;28;20054;-61
2022/08/20 01:49:30;;;;;;;5.60;2.05;;;16.50;99.90;;;;;;4989792;28;20608;-61
2022/08/20 01:51:58;;;;;;;7.93;1.38;;;16.40;99.90;;;;;;4972268;28;20046;-61
2022/08/20 01:54:26;;;;;;;6.55;1.25;;;16.40;99.90;;;;;;4972670;28;20078;-61
2022/08/20 01:56:56;;;;;;;12.38;1.80;;;16.40;99.90;;;;;;4989708;28;20097;-61
2022/08/20 01:59:23;;;;;;;6.20;1.50;;;16.40;99.90;;;;;;4989930;28;20121;-61
2022/08/20 02:01:50;;;;;;;14.00;1.58;;;16.40;99.90;;;;;;4988009;28;20422;-60
2022/08/20 02:04:18;;;;;;;6.97;1.83;;;16.40;99.90;;;;;;4989574;28;20043;-59
2022/08/20 02:06:53;;;;;;;7.13;1.20;;;16.40;99.90;;;;;;4989227;28;20096;-61
2022/08/20 02:09:22;;;;;;;6.78;1.80;;;16.40;99.90;;;;;;4972454;28;20050;-60
2022/08/20 02:11:52;;;;;;;7.47;1.80;;;16.40;99.90;;;;;;4989405;28;20074;-60
2022/08/20 02:14:19;;;;;;;6.13;1.55;;;16.40;99.90;;;;;;4989324;28;20092;-59
2022/08/20 02:16:46;;;;;;;9.20;2.25;;;16.50;99.90;;;;;;4989191;28;20078;-60
2022/08/20 02:19:37;;;;;;;6.32;1.52;;;16.50;99.90;;;;;;4988662;28;20054;-61
2022/08/20 02:22:19;;;;;;;6.55;1.60;;;16.50;99.90;;;;;;4971621;28;20078;-63
2022/08/20 02:24:47;;;;;;;5.55;1.52;;;16.40;99.90;;;;;;4972069;28;20130;-61
2022/08/20 02:27:13;;;;;;;8.07;1.48;;;16.40;99.90;;;;;;4989029;28;20108;-60
2022/08/20 02:29:40;;;;;;;6.00;1.52;;;16.40;99.90;;;;;;4971275;28;20082;-61
2022/08/20 02:32:07;;;;;;;4.70;1.35;;;16.40;99.90;;;;;;4988970;28;20073;-60
2022/08/20 02:34:54;;;;;;;7.10;1.50;;;16.30;99.90;;;;;;4989201;28;20068;-60
2022/08/20 02:37:21;;;;;;;6.07;1.20;;;16.30;99.90;;;;;;4988794;28;20081;-58
2022/08/20 02:39:48;;;;;;;5.28;1.40;;;16.30;99.90;;;;;;4988579;28;20070;-60
2022/08/20 02:42:15;;;;;;;5.13;1.33;;;16.30;99.90;;;;;;4989178;28;20068;-59
2022/08/20 02:44:42;;;;;;;7.93;1.63;;;16.20;99.90;;;;;;4988792;28;20051;-60
2022/08/20 02:47:09;;;;;;;6.03;2.05;;;16.20;99.90;;;;;;4989004;28;20057;-60
2022/08/20 02:49:36;;;;;;;6.40;1.40;;;16.20;99.90;;;;;;4955594;28;20050;-60
2022/08/20 02:52:03;;;;;;;9.85;1.73;;;16.10;99.90;;;;;;4988888;28;20120;-60
2022/08/20 02:54:30;;;;;;;7.05;1.58;;;16.10;99.90;;;;;;4989007;28;20509;-60
2022/08/20 02:56:57;;;;;;;11.30;2.47;;;16.20;99.90;;;;;;4988678;28;20086;-60
2022/08/20 02:59:24;;;;;;;9.82;1.90;;;16.20;99.90;;;;;;4989011;28;20046;-60
2022/08/20 03:01:51;;;;;;;7.68;1.85;;;16.20;99.90;;;;;;4988446;28;20129;-60
2022/08/20 03:04:28;;;;;;;15.73;2.60;;;16.20;99.90;;;;;;4988541;28;20054;-61
2022/08/20 03:06:55;;;;;;;9.35;1.48;;;16.20;99.90;;;;;;4971337;28;20141;-60
2022/08/20 03:09:21;;;;;;;6.07;1.55;;;16.10;99.90;;;;;;4988327;28;20128;-61
2022/08/20 03:11:48;;;;;;;7.53;1.20;;;16.10;99.90;;;;;;4977802;28;20078;-60
2022/08/20 03:14:15;;;;;;;9.48;1.15;;;16.20;99.90;;;;;;4988861;28;20199;-60
2022/08/20 03:16:42;;;;;;;5.65;1.73;;;16.10;99.90;;;;;;4971687;28;20069;-59
2022/08/20 03:19:09;;;;;;;4.72;1.13;;;16.00;99.90;;;;;;4988117;28;20567;-59
2022/08/20 03:21:36;;;;;;;7.07;1.67;;;15.90;99.90;;;;;;4988929;28;20074;-61
2022/08/20 03:24:03;;;;;;;6.25;1.77;;;15.80;99.90;;;;;;4988289;28;20046;-60
2022/08/20 03:26:29;;;;;;;9.43;1.48;;;15.80;99.90;;;;;;4988401;28;20120;-60
2022/08/20 03:28:56;;;;;;;7.60;1.45;;;15.80;99.90;;;;;;4988680;28;20077;-60
2022/08/20 03:31:23;;;;;;;7.47;1.65;;;15.80;99.90;;;;;;4989304;28;20481;-60
2022/08/20 03:33:50;;;;;;;6.68;1.50;;;15.70;99.90;;;;;;4992121;28;20046;-60
2022/08/20 03:36:20;;;;;;;9.88;2.42;;;15.80;99.90;;;;;;4992201;28;20100;-60
2022/08/20 03:38:55;;;;;;;7.40;2.47;;;15.70;99.90;;;;;;4989213;28;20108;-60
2022/08/20 03:41:22;;;;;;;4.78;1.35;;;15.70;99.90;;;;;;4990913;28;20117;-60
2022/08/20 03:43:49;;;;;;;6.32;1.38;;;15.70;99.90;;;;;;4990632;28;20084;-61
2022/08/20 03:46:16;;;;;;;6.13;1.42;;;15.60;99.90;;;;;;4992012;28;20047;-61
2022/08/20 03:48:49;;;;;;;10.45;1.52;;;15.60;99.90;;;;;;4991565;28;20054;-61
2022/08/20 03:51:22;;;;;;;7.90;2.40;;;15.50;99.90;;;;;;4991711;28;20054;-60
2022/08/20 03:53:49;;;;;;;11.20;2.03;;;15.50;99.90;;;;;;4991678;28;20076;-60
2022/08/20 03:56:16;;;;;;;10.30;2.13;;;15.50;99.90;;;;;;4992093;28;20614;-59
2022/08/20 03:58:43;;;;;;;8.20;2.55;;;15.60;99.90;;;;;;4992257;28;20076;-60
2022/08/20 04:01:09;;;;;;;11.00;1.88;;;15.50;99.90;;;;;;4991478;28;20188;-59
2022/08/20 04:03:57;;;;;;;8.15;1.70;;;15.40;99.90;;;;;;4989317;28;20072;-60
2022/08/20 04:06:25;;;;;;;10.70;1.55;;;15.40;99.90;;;;;;4974338;28;20051;-60
2022/08/20 04:08:52;;;;;;;7.05;1.63;;;15.40;99.90;;;;;;4974400;28;20081;-59
2022/08/20 04:11:19;;;;;;;7.53;1.73;;;15.40;99.90;;;;;;4991438;28;20097;-58
2022/08/20 04:13:46;;;;;;;5.28;1.70;;;15.30;99.90;;;;;;4991714;28;20057;-60
2022/08/20 04:16:14;;;;;;;4.47;1.33;;;15.30;99.90;;;;;;4991270;28;20054;-60
2022/08/20 04:18:42;;;;;;;10.70;1.40;;;15.30;99.90;;;;;;4991561;28;20046;-60
2022/08/20 04:21:28;;;;;;;11.55;1.63;;;15.30;99.90;;;;;;4990160;28;20053;-60
2022/08/20 04:23:59;;;;;;;8.57;1.45;;;15.30;99.90;;;;;;4991654;28;20038;-59
2022/08/20 04:26:25;;;;;;;5.22;2.20;;;15.20;99.90;;;;;;4990986;28;20077;-60
2022/08/20 04:28:54;;;;;;;7.10;1.15;;;15.20;99.90;;;;;;4991085;28;20477;-60
2022/08/20 04:31:23;;;;;;;10.02;1.40;;;15.20;99.90;;;;;;4991120;28;20462;-60
2022/08/20 04:33:51;;;;;;;7.18;1.95;;;15.20;99.90;;;;;;4990783;28;20061;-60
2022/08/20 04:36:18;;;;;;;8.90;1.30;;;15.30;99.90;;;;;;4991075;28;20128;-60
2022/08/20 04:38:44;;;;;;;8.70;1.45;;;15.30;99.90;;;;;;4990962;28;20110;-60
2022/08/20 04:41:18;;;;;;;7.28;1.73;;;15.30;99.90;;;;;;4991269;28;20050;-60
2022/08/20 04:43:50;;;;;;;9.53;1.80;;;15.30;99.90;;;;;;4990548;28;20054;-60
2022/08/20 04:46:18;;;;;;;8.13;2.00;;;15.20;99.90;;;;;;4983523;28;20096;-60
2022/08/20 04:48:45;;;;;;;9.25;1.35;;;15.20;99.90;;;;;;4990329;28;20064;-61
2022/08/20 04:51:16;;;;;;;5.20;1.40;;;15.20;99.90;;;;;;4990698;28;20258;-60
2022/08/20 04:53:44;;;;;;;11.75;1.60;;;15.30;99.90;;;;;;4990788;28;20134;-60
2022/08/20 04:56:22;;;;;;;7.80;1.58;;;15.30;99.90;;;;;;4990777;28;20096;-60
2022/08/20 04:58:50;;;;;;;4.35;1.55;;;15.30;99.90;;;;;;4990657;28;20489;-60
2022/08/20 05:01:17;;;;;;;7.25;1.52;;;15.30;99.90;;;;;;4990749;28;20077;-60
2022/08/20 05:03:46;;;;;;;6.97;1.15;;;15.30;99.90;;;;;;4973098;28;20394;-60
2022/08/20 05:06:14;;;;;;;8.77;1.60;;;15.20;99.90;;;;;;4990747;28;20057;-60
2022/08/20 05:08:41;;;;;;;6.05;1.48;;;15.20;99.90;;;;;;4990187;28;20096;-60
2022/08/20 05:11:08;;;;;;;10.25;2.08;;;15.20;99.90;;;;;;4973401;28;20524;-60
2022/08/20 05:13:55;;;;;;;11.57;1.58;;;15.20;99.90;;;;;;4982151;28;20049;-60
2022/08/20 05:16:23;;;;;;;4.50;1.30;;;15.10;99.90;;;;;;4990497;28;20078;-60
2022/08/20 05:18:50;;;;;;;9.05;1.73;;;15.10;99.90;;;;;;4990126;28;20486;-61
2022/08/20 05:21:19;;;;;;;8.00;1.50;;;15.10;99.90;;;;;;4990251;28;20501;-60
2022/08/20 05:23:46;;;;;;;6.22;1.42;;;15.10;99.90;;;;;;4990017;28;20074;-60
2022/08/20 05:26:14;;;;;;;9.27;2.03;;;15.10;99.90;;;;;;4990491;28;20101;-60
2022/08/20 05:28:42;;;;;;;8.10;2.30;;;15.10;99.90;;;;;;4988822;28;20049;-61
2022/08/20 05:31:25;;;;;;;9.88;2.67;;;15.10;99.90;;;;;;4990214;28;20142;-59
2022/08/20 05:34:10;;;;;;;10.48;1.58;;;15.00;99.90;;;;;;4989680;28;20042;-60
2022/08/20 05:36:42;;;;;;;11.82;2.03;;;15.10;99.90;;;;;;4990024;28;20054;-60
2022/08/20 05:39:09;;;;;;;8.57;1.90;;;15.10;99.90;;;;;;4989950;28;20129;-60
2022/08/20 05:41:37;;;;;;;10.43;3.25;;;15.10;99.90;;;;;;4990200;28;20050;-59
2022/08/20 05:44:04;;;;;;;6.93;1.95;;;15.20;99.90;;;;;;4989533;28;20053;-59
2022/08/20 05:46:31;;;;;;;2.60;1.13;;;15.30;99.90;;;;;;4989936;28;20053;-59
2022/08/20 05:49:00;;;;;;;6.90;2.15;;;15.30;99.90;;;;;;4989781;28;20093;-60
2022/08/20 05:51:27;;;;;;;6.93;1.30;;;15.40;99.90;;;;;;4989606;28;20489;-59
2022/08/20 05:53:56;;;;;;;10.07;1.90;;;15.50;99.90;;;;;;4989157;28;20049;-59
2022/08/20 05:56:25;;;;;;;10.07;1.95;;;15.50;99.90;;;;;;4988483;28;20429;-60
2022/08/20 05:58:53;;;;;;;12.05;2.45;;;15.50;99.90;;;;;;4989812;28;20410;-60
2022/08/20 06:01:20;;;;;;;10.05;2.10;;;15.60;99.90;;;;;;4989317;28;20116;-60
2022/08/20 06:06:33;;;;;;;6.22;2.00;;;15.50;99.90;;;;;;4989371;28;20074;-61
2022/08/20 06:09:11;;;;;;;8.82;1.55;;;15.60;99.90;;;;;;4983043;28;20049;-61
2022/08/20 06:11:37;;;;;;;8.80;1.77;;;15.70;99.90;;;;;;4989485;28;20050;-61
2022/08/20 06:14:04;;;;;;;9.90;2.08;;;15.70;99.90;;;;;;4989685;28;20086;-60
2022/08/20 06:16:31;;;;;;;10.10;1.95;;;15.70;99.90;;;;;;4971972;28;20077;-60
2022/08/20 06:18:58;;;;;;;9.40;1.88;;;15.80;99.90;;;;;;4989395;28;20038;-60
2022/08/20 06:21:28;;;;;;;6.05;1.95;;;15.90;99.90;;;;;;4989017;28;20062;-59
2022/08/20 06:23:55;;;;;;;10.25;2.20;;;16.00;99.90;;;;;;4989116;28;20046;-59
2022/08/20 06:26:26;;;;;;;6.03;1.73;;;16.00;99.90;;;;;;4989214;28;20046;-59
2022/08/20 06:28:57;;;;;;;6.90;1.63;;;16.00;99.90;;;;;;4988601;28;20414;-60
2022/08/20 06:31:24;;;;;;;7.90;1.73;;;16.10;99.90;;;;;;4979256;28;20085;-60
2022/08/20 06:33:51;;;;;;;12.38;2.15;;;16.10;99.90;;;;;;4989135;28;20134;-60
2022/08/20 06:36:18;;;;;;;11.35;2.63;;;16.20;99.90;;;;;;4988744;28;20133;-60
2022/08/20 06:38:45;;;;;;;9.88;1.75;;;16.30;99.90;;;;;;4989067;28;20081;-60
2022/08/20 06:41:12;;;;;;;7.93;1.77;;;16.40;99.90;;;;;;4987828;28;20425;-60
2022/08/20 06:43:39;;;;;;;8.57;1.38;;;16.50;99.90;;;;;;4989164;28;20469;-60
2022/08/20 06:46:06;;;;;;;10.98;1.85;;;16.50;99.90;;;;;;4988332;28;20047;-60
2022/08/20 06:48:33;;;;;;;11.98;2.53;;;16.60;99.90;;;;;;4642999;28;10000390;-60
2022/08/20 06:51:00;;;;;;;15.38;1.75;;;16.70;99.90;;;;;;4985926;28;20085;-59
2022/08/20 06:53:27;;;;;;;7.07;1.60;;;16.80;99.90;;;;;;4985052;28;20058;-58
2022/08/20 06:55:55;;;;;;;11.35;2.17;;;16.80;99.90;;;;;;4968660;28;20129;-59
2022/08/20 06:58:22;;;;;;;13.35;2.80;;;16.80;99.90;;;;;;4968480;28;20042;-60
2022/08/20 07:01:06;;;;;;;8.40;1.25;;;16.90;99.90;;;;;;4985765;28;20174;-61
2022/08/20 07:03:39;;;;;;;10.65;2.08;;;17.00;99.90;;;;;;4968733;28;20050;-60
2022/08/20 07:06:19;;;;;;;13.93;2.40;;;17.00;99.90;;;;;;4988373;28;20058;-60
2022/08/20 07:08:46;;;;;;;6.45;2.05;;;17.10;99.90;;;;;;4989794;28;20133;-60
2022/08/20 07:11:13;;;;;;;9.43;1.85;;;17.20;99.90;;;;;;4989944;28;20121;-61
2022/08/20 07:13:40;;;;;;;8.80;2.20;;;17.20;99.90;;;;;;4989315;28;20078;-61
2022/08/20 07:16:07;;;;;;;12.00;1.88;;;17.30;99.90;;;;;;4989735;28;20069;-60
2022/08/20 07:18:35;;;;;;;7.03;1.50;;;17.40;99.90;;;;;;4972330;28;20046;-59
2022/08/20 07:21:02;;;;;;;11.82;2.00;;;17.40;99.90;;;;;;4989683;28;20053;-60
2022/08/20 07:23:30;;;;;;;10.73;2.55;;;17.50;99.90;;;;;;4984719;28;20057;-59
2022/08/20 07:25:57;;;;;;;10.68;1.75;;;17.50;99.90;;;;;;4984859;28;20480;-60
2022/08/20 07:28:27;;;;;;;9.55;2.40;;;17.70;99.90;;;;;;4984922;28;20051;-60
2022/08/20 07:33:41;;;;;;;11.48;1.70;;;17.70;99.90;;;;;;4985552;28;20047;-59
2022/08/20 07:36:10;;;;;;;9.35;1.60;;;17.80;99.90;;;;;;4983875;28;20085;-60
2022/08/20 07:38:37;;;;;;;17.90;2.55;;;17.80;99.90;;;;;;4984507;28;20097;-61
2022/08/20 07:41:11;;;;;;;12.52;2.17;;;17.90;99.90;;;;;;4982521;28;20069;-61
2022/08/20 07:43:39;;;;;;;14.85;2.22;;;17.90;99.90;;;;;;4985044;28;20050;-60
2022/08/20 07:46:08;;;;;;;11.32;2.05;;;18.00;99.90;;;;;;4986486;28;20082;-61
2022/08/20 07:48:38;;;;;;;7.78;1.42;;;18.10;99.90;;;;;;4985326;28;20046;-61
2022/08/20 07:51:06;;;;;;;12.60;2.47;;;18.20;99.90;;;;;;4981292;28;20054;-60
2022/08/20 07:53:33;;;;;;;6.50;1.88;;;18.20;99.90;;;;;;4984975;28;20098;-59
2022/08/20 07:56:06;;;;;;;10.00;1.90;;;18.20;99.90;;;;;;4982796;28;20073;-60
2022/08/20 07:58:35;;;;;;;17.55;2.63;;;18.20;99.90;;;;;;4980909;28;20146;-60
2022/08/20 08:01:03;;;;;;;8.23;1.75;;;18.30;99.90;;;;;;4983294;28;20081;-60
2022/08/20 08:03:31;;;;;;;13.20;2.00;;;18.40;99.90;;;;;;4982402;28;20458;-60
2022/08/20 08:06:17;;;;;;;5.63;1.83;;;18.40;99.90;;;;;;4964783;28;20156;-60
2022/08/20 08:09:01;;;;;;;8.77;2.97;;;18.50;99.90;;;;;;4973164;28;20046;-61
2022/08/20 08:11:31;;;;;;;15.05;3.45;;;18.60;99.90;;;;;;4971405;28;20402;-61
2022/08/20 08:13:58;;;;;;;8.88;2.33;;;18.70;99.90;;;;;;4971693;28;20073;-60
2022/08/20 08:16:25;;;;;;;9.35;2.00;;;18.80;99.90;;;;;;4972154;28;20150;-62
2022/08/20 08:18:55;;;;;;;17.33;1.98;;;18.80;99.90;;;;;;4988631;28;20050;-67
2022/08/20 08:21:22;;;;;;;15.70;2.38;;;18.90;99.90;;;;;;4971884;28;20054;-59
2022/08/20 08:23:49;;;;;;;8.20;1.50;;;18.90;99.90;;;;;;4988776;28;20512;-60
2022/08/20 08:26:16;;;;;;;8.35;1.42;;;19.00;99.90;;;;;;4988945;28;20078;-60
2022/08/20 08:28:45;;;;;;;8.68;1.80;;;19.00;99.90;;;;;;4987765;28;20050;-60
2022/08/20 08:31:12;;;;;;;11.20;2.50;;;19.10;99.90;;;;;;4987477;28;20054;-60
2022/08/20 08:33:39;;;;;;;6.43;1.60;;;19.10;99.90;;;;;;4988349;28;20102;-60
2022/08/20 08:36:11;;;;;;;8.95;1.60;;;19.20;99.90;;;;;;4987532;28;20101;-60
2022/08/20 08:38:39;;;;;;;4.88;1.23;;;19.20;99.90;;;;;;4986400;28;20152;-61
2022/08/20 08:41:40;;;;;;;5.22;1.27;;;19.20;99.90;;;;;;4986289;28;20174;-61
2022/08/20 08:44:19;;;;;;;8.88;2.00;;;19.40;99.40;;;;;;4932394;28;20130;-60
2022/08/20 08:46:49;;;;;;;8.13;1.60;;;19.50;99.70;;;;;;4986460;28;20057;-61
2022/08/20 08:49:21;;;;;;;6.35;1.02;;;19.50;99.90;;;;;;4986235;28;20149;-62
2022/08/20 08:51:54;;;;;;;6.53;1.33;;;19.50;98.80;;;;;;4970213;28;20399;-60
2022/08/20 08:54:23;;;;;;;8.80;2.50;;;19.60;98.80;;;;;;4987642;28;20512;-61
2022/08/20 08:56:50;;;;;;;8.60;1.73;;;19.50;99.30;;;;;;4970568;28;20082;-61
2022/08/20 08:59:18;;;;;;;5.20;1.23;;;19.50;97.90;;;;;;4988180;28;20104;-60
2022/08/20 09:01:53;;;;;;;6.13;1.13;;;19.70;99.10;;;;;;4969920;28;20571;-60
2022/08/20 09:04:34;;;;;;;7.70;1.02;;;19.80;97.80;;;;;;4970978;28;20147;-61
2022/08/20 09:07:01;;;;;;;5.10;1.38;;;20.00;96.30;;;;;;4987526;28;20478;-61
2022/08/20 09:09:34;;;;;;;4.50;1.27;;;20.10;97.00;;;;;;4987495;28;20074;-61
2022/08/20 09:12:10;;;;;;;3.78;1.08;;;20.20;94.00;;;;;;4970314;28;20097;-61
2022/08/20 09:14:38;;;;;;;4.30;1.63;;;20.30;94.50;;;;;;4987232;28;20050;-61
2022/08/20 09:17:07;;;;;;;5.78;1.52;;;20.40;95.50;;;;;;4970104;28;20042;-60
2022/08/20 09:19:35;;;;;;;4.15;1.25;;;20.40;93.10;;;;;;4987439;28;20093;-61
2022/08/20 09:22:07;;;;;;;3.97;1.38;;;20.50;94.30;;;;;;4986392;28;20377;-59
2022/08/20 09:24:34;;;;;;;4.43;1.30;;;20.60;93.50;;;;;;4985635;28;20391;-60
2022/08/20 09:27:01;;;;;;;5.53;0.90;;;20.60;92.00;;;;;;4986193;28;20082;-59
2022/08/20 09:29:28;;;;;;;5.00;1.83;;;20.60;92.00;;;;;;4986281;28;20065;-60
2022/08/20 09:32:15;;;;;;;5.95;1.65;;;20.70;93.00;;;;;;4987087;28;20109;-59
2022/08/20 09:34:44;;;;;;;4.63;1.23;;;20.80;91.70;;;;;;4977206;28;20521;-59
2022/08/20 09:37:11;;;;;;;6.50;1.33;;;20.80;92.60;;;;;;4984685;28;20058;-60
2022/08/20 09:39:38;;;;;;;3.20;1.10;;;20.90;93.20;;;;;;4984392;28;20100;-59
2022/08/20 09:42:32;;;;;;;3.92;1.35;;;21.10;91.70;;;;;;4967789;28;20154;-59
2022/08/20 09:45:07;;;;;;;3.42;0.80;;;21.20;88.80;;;;;;4976490;28;20046;-60
2022/08/20 09:47:37;;;;;;;4.30;1.20;;;21.20;90.00;;;;;;4985483;28;20133;-60
2022/08/20 09:50:23;;;;;;;4.28;1.10;;;21.20;90.30;;;;;;4984001;28;20105;-59
2022/08/20 09:52:50;;;;;;;3.80;1.20;;;21.20;90.40;;;;;;4969337;28;20374;-60
2022/08/20 09:55:34;;;;;;;4.03;1.13;;;21.20;90.00;;;;;;4969540;28;20390;-59
2022/08/20 09:58:37;;;;;;;6.60;1.38;;;21.30;90.00;;;;;;4969277;28;20078;-59
2022/08/20 10:01:09;;;;;;;8.73;1.58;;;21.30;89.20;;;;;;4986331;28;20061;-59
2022/08/20 10:03:43;;;;;;;5.47;1.50;;;21.40;90.70;;;;;;4986237;28;20081;-59
2022/08/20 10:06:10;;;;;;;4.20;1.25;;;21.30;91.10;;;;;;4969381;28;20094;-59
2022/08/20 10:08:37;;;;;;;6.50;1.23;;;21.30;91.50;;;;;;4982480;28;20445;-59
2022/08/20 10:11:04;;;;;;;4.00;0.93;;;21.40;91.20;;;;;;4969528;28;20085;-59
2022/08/20 10:13:31;;;;;;;6.75;1.75;;;21.50;91.40;;;;;;4986369;28;20576;-59
2022/08/20 10:15:58;;;;;;;5.80;2.20;;;21.40;90.60;;;;;;4975658;28;20105;-60
2022/08/20 10:18:25;;;;;;;10.85;2.10;;;21.20;90.90;;;;;;4985847;28;20081;-61
2022/08/20 10:20:52;;;;;;;6.75;1.48;;;21.20;91.90;;;;;;4986170;28;20442;-60
2022/08/20 10:23:18;;;;;;;5.75;1.58;;;21.30;92.00;;;;;;4986181;28;20097;-61
2022/08/20 10:25:45;;;;;;;5.78;1.10;;;21.40;91.80;;;;;;4986736;28;20134;-59
2022/08/20 10:28:12;;;;;;;5.50;1.30;;;21.50;91.10;;;;;;4986735;28;20052;-60
2022/08/20 10:30:39;;;;;;;7.22;1.55;;;21.60;90.90;;;;;;4986139;28;20058;-60
2022/08/20 10:33:06;;;;;;;6.00;1.55;;;21.60;90.90;;;;;;4986121;28;20195;-60
2022/08/20 10:35:33;;;;;;;6.32;1.17;;;21.70;90.90;;;;;;4986302;28;20055;-58
2022/08/20 10:38:00;;;;;;;7.03;1.60;;;21.80;90.50;;;;;;4979111;28;20054;-60
2022/08/20 10:40:27;;;;;;;6.10;1.40;;;22.00;89.00;;;;;;4985635;28;20520;-61
2022/08/20 10:42:54;;;;;;;3.58;1.48;;;21.90;89.10;;;;;;4985997;28;20085;-60
2022/08/20 10:45:21;;;;;;;6.97;1.60;;;21.90;90.00;;;;;;4985730;28;20046;-59
2022/08/20 10:47:48;;;;;;;13.40;3.65;;;21.80;89.70;;;;;;4986065;28;20093;-60
2022/08/20 10:50:18;;;;;;;6.03;1.20;;;21.70;90.50;;;;;;4985512;28;20405;-59
2022/08/20 10:52:46;;;;;;;6.57;1.73;;;21.80;90.50;;;;;;4985829;28;20453;-59
2022/08/20 10:55:13;;;;;;;5.07;1.92;;;21.80;89.90;;;;;;4985980;28;20062;-59
2022/08/20 10:57:40;;;;;;;7.18;1.67;;;21.70;89.80;;;;;;4985678;28;20058;-60
2022/08/20 11:00:10;;;;;;;5.15;1.52;;;21.80;90.30;;;;;;4985463;28;20078;-60
2022/08/20 11:02:37;;;;;;;10.05;2.30;;;21.80;89.60;;;;;;4985513;28;20065;-60
2022/08/20 11:05:06;;;;;;;4.50;1.17;;;21.80;90.00;;;;;;4985562;28;20042;-60
2022/08/20 11:07:37;;;;;;;5.72;2.20;;;21.90;90.20;;;;;;4986001;28;20081;-60
2022/08/20 11:10:26;;;;;;;5.63;1.38;;;21.80;88.90;;;;;;4983317;28;20376;-60
2022/08/20 11:12:53;;;;;;;7.00;1.45;;;21.80;89.80;;;;;;4975080;28;20050;-60
2022/08/20 11:15:20;;;;;;;7.78;1.52;;;21.90;89.00;;;;;;4985621;28;20042;-60
2022/08/20 11:17:46;;;;;;;7.90;1.88;;;21.90;88.50;;;;;;4986043;28;20442;-60
2022/08/20 11:20:15;;;;;;;8.35;1.75;;;22.10;89.10;;;;;;4985322;28;20043;-59
2022/08/20 11:22:41;;;;;;;9.02;2.17;;;22.30;87.50;;;;;;4985904;28;20054;-61
2022/08/20 11:25:09;;;;;;;10.18;2.13;;;22.40;86.70;;;;;;4985558;28;20587;-61
2022/08/20 11:27:41;;;;;;;10.48;3.42;;;22.60;87.70;;;;;;4985818;28;20100;-60
2022/08/20 11:30:10;;;;;;;9.43;3.47;;;22.80;86.50;;;;;;4985660;28;20134;-60
2022/08/20 11:32:37;;;;;;;5.35;2.08;;;22.90;85.30;;;;;;4983980;28;20154;-61
2022/08/20 11:35:04;;;;;;;8.05;1.58;;;22.70;84.50;;;;;;4972295;28;20089;-60
2022/08/20 11:37:52;;;;;;;4.45;1.30;;;22.60;84.40;;;;;;4985019;28;20141;-61
2022/08/20 11:40:18;;;;;;;8.32;2.30;;;22.60;85.50;;;;;;4985712;28;20129;-61
2022/08/20 11:42:46;;;;;;;8.27;1.70;;;22.50;84.60;;;;;;4985116;28;20137;-60
2022/08/20 11:45:33;;;;;;;3.42;1.13;;;22.60;84.60;;;;;;4980360;28;20130;-60
2022/08/20 11:48:03;;;;;;;8.93;1.92;;;22.80;83.40;;;;;;4968369;28;20054;-61
2022/08/20 11:50:30;;;;;;;9.18;1.92;;;22.80;83.10;;;;;;4968244;28;20097;-61
2022/08/20 11:52:57;;;;;;;5.03;1.00;;;22.80;81.40;;;;;;4986802;28;20569;-61
2022/08/20 11:55:26;;;;;;;2.40;1.20;;;22.80;81.80;;;;;;4643661;28;10000578;-61
2022/08/20 11:57:56;;;;;;;8.65;2.40;;;23.00;80.70;;;;;;4989763;28;20042;-61
2022/08/20 12:00:26;;;;;;;5.13;1.40;;;23.00;81.30;;;;;;4988803;28;20137;-60
2022/08/20 12:03:00;;;;;;;5.55;1.17;;;23.00;79.90;;;;;;4990983;28;20050;-61
2022/08/20 12:05:28;;;;;;;6.65;1.20;;;23.10;79.90;;;;;;4991580;28;20054;-61
2022/08/20 12:07:56;;;;;;;7.65;1.50;;;23.10;78.80;;;;;;4974606;28;20054;-61
2022/08/20 12:10:25;;;;;;;2.35;0.90;;;23.10;79.10;;;;;;4991485;28;20046;-60
2022/08/20 12:12:52;;;;;;;5.20;1.85;;;23.00;78.70;;;;;;4991043;28;20575;-60
2022/08/20 12:15:19;;;;;;;5.95;2.10;;;22.90;78.50;;;;;;4991405;28;20042;-60
2022/08/20 12:17:46;;;;;;;9.82;2.33;;;22.90;77.90;;;;;;4991067;28;20257;-61
2022/08/20 12:20:13;;;;;;;5.68;1.30;;;22.90;78.40;;;;;;4991020;28;20078;-59
2022/08/20 12:22:40;;;;;;;5.65;1.67;;;22.90;76.90;;;;;;4973555;28;20077;-61
2022/08/20 12:25:08;;;;;;;6.50;1.75;;;23.10;78.60;;;;;;4991342;28;20042;-60
2022/08/20 12:27:35;;;;;;;5.78;1.55;;;23.30;77.00;;;;;;4990811;28;20042;-60
2022/08/20 12:30:05;;;;;;;3.80;1.40;;;23.50;77.40;;;;;;4990508;28;20555;-62
2022/08/20 12:32:32;;;;;;;5.88;1.48;;;23.60;75.00;;;;;;4972556;28;20124;-61
2022/08/20 12:34:59;;;;;;;4.57;1.58;;;23.70;75.70;;;;;;4973894;28;20066;-62
2022/08/20 12:37:29;;;;;;;5.88;1.45;;;23.80;74.00;;;;;;4990150;28;20097;-61
2022/08/20 12:39:57;;;;;;;5.78;1.10;;;24.00;72.80;;;;;;4989167;28;20076;-61
2022/08/20 12:42:24;;;;;;;2.83;1.10;;;24.20;72.50;;;;;;4989150;28;20085;-61
2022/08/20 12:44:51;;;;;;;5.40;1.40;;;24.20;71.40;;;;;;4988864;28;20046;-61
2022/08/20 12:47:19;;;;;;;7.07;1.67;;;24.00;71.50;;;;;;4962684;28;20081;-61
2022/08/20 12:49:54;;;;;;;5.78;0.90;;;24.00;72.30;;;;;;4986984;28;20441;-61
2022/08/20 12:52:21;;;;;;;6.75;1.58;;;24.10;71.60;;;;;;4987455;28;20105;-61
2022/08/20 12:54:48;;;;;;;17.13;2.65;;;24.10;71.20;;;;;;4989451;28;20561;-61
2022/08/20 12:57:27;;;;;;;4.38;1.33;;;24.00;71.00;;;;;;4989487;28;20054;-60
2022/08/20 12:59:55;;;;;;;8.75;1.80;;;23.90;71.30;;;;;;4989078;28;20046;-60
2022/08/20 13:02:24;;;;;;;3.40;1.10;;;23.90;70.30;;;;;;4990025;28;20046;-60
2022/08/20 13:04:51;;;;;;;3.92;1.10;;;23.80;70.80;;;;;;4989906;28;20075;-60